weather.gov     
National Weather Service

Terminal Aerodrome Forecast
NWS Homepage
This page is being discontinued on March 12, 2014.
The same data is available at this site. Please update your bookmarks.
Thank you, and we apologize for the inconvenience.
Please send an email to SR-SRH.Webmaster@noaa.gov with any concerns.


Current Version
Previous Version:    01  02  03  04  05  06  07  08  09  10  11  12  13  14  15  16  17  18  19  20  21  22  23  24  25  26  27  28  29  30  
   31  
[Printable]
662
FTUS43 KBIS 231100
TAFJMS
TAF
KJMS 231130Z 2312/2412 12022G28KT P6SM -SHRA BKN045 OVC070
      TEMPO 2312/2314 5SM SHRA SCT012 BKN035
     FM231400 13027G35KT P6SM VCSH SCT040 OVC080
     FM232100 13020G27KT P6SM -SHRA SCT020 OVC045
     FM240100 13015G23KT P6SM -SHRA OVC025
     FM240900 25008KT P6SM SCT080=


U.S. Dept. of Commerce
NOAA National Weather Service
1325 East West Highway
Silver Spring, MD 20910
E-mail: w-nws.webmaster@noaa.gov
Page last modified: May 16, 2007
NATIONAL WEATHER SERVICE: for Safety, for Work, for Fun - FOR LIFE